Shearwater — 3ESK5 — position and weather

sailwx.info

Track history (hours):
 
Tides and Currents Weather Stations Pressure Air Temp Water Temp Dewpoint Dewpoint Depression Visibility Wind Speed Wind Dir Waves Ship Positions

Shearwater

Last reported at 2017-Oct-04 07:32 UTC. Time now 2017-Oct-17 08:01 UTC.
Position S 27°01' E 153°54'.
Warning: this ship's position is 13 days out of date.

Length 210 m; draft 11.3 m.

Type: Cargo ship. MMSI: 370338000.

Date/timePositionNaut miles runAvg speedWind from/ knotsBaromVisibWave heightAir tempDewpointWater temp
2017-Oct-04 07:32S 27°01' E 153°54'2710.6
2017-Oct-04 05:01S 27°28' E 153°54'210.9
2017-Oct-04 04:50S 27°29' E 153°54'410.8
2017-Oct-04 04:29S 27°33' E 153°53'510.7
2017-Oct-04 04:00S 27°38' E 153°53'510.5
2017-Oct-04 03:30S 27°44' E 153°53'510.4
2017-Oct-04 03:00S 27°49' E 153°53'510.4
2017-Oct-04 02:30S 27°54' E 153°53'510.2
2017-Oct-04 02:00S 27°59' E 153°53'510.1
2017-Oct-04 01:30S 28°04' E 153°53'5 9.8
2017-Oct-04 01:00S 28°09' E 153°52'5 9.9
2017-Oct-04 00:30S 28°14' E 153°52'510.0
2017-Oct-04 00:00S 28°19' E 153°52'5 9.9
2017-Oct-03 23:30S 28°24' E 153°52'510.3
2017-Oct-03 23:00S 28°29' E 153°52'510.1
2017-Oct-03 22:30S 28°34' E 153°52'710.4
2017-Oct-03 21:50S 28°41' E 153°51'411.2
2017-Oct-03 21:29S 28°45' E 153°50'22510.4
2017-Oct-02 23:55S 32°22' E 152°41'410.7
2017-Oct-02 23:30S 32°26' E 152°38'510.5
2017-Oct-02 23:00S 32°31' E 152°36'511.0
2017-Oct-02 22:31S 32°36' E 152°33'611.4
2017-Oct-02 22:01S 32°41' E 152°31'611.5
2017-Oct-02 21:31S 32°46' E 152°28'611.0
2017-Oct-02 21:00S 32°51' E 152°25'611.4
2017-Oct-02 20:30S 32°56' E 152°22'611.4
2017-Oct-02 20:00S 33°01' E 152°18'611.5
2017-Oct-02 19:31S 33°06' E 152°15'611.5
2017-Oct-02 19:00S 33°12' E 152°13'5111.5
2017-Oct-02 14:37S 33°57' E 151°46'  
2017-Sep-28 01:05S 33°21' E 152°08'112.8
2017-Sep-28 01:00S 33°20' E 152°08'712.7
2017-Sep-28 00:28S 33°14' E 152°11'612.5
2017-Sep-28 00:00S 33°08' E 152°14'612.5
2017-Sep-27 23:30S 33°03' E 152°18'612.6
2017-Sep-27 23:00S 32°57' E 152°21'612.6
2017-Sep-27 22:30S 32°51' E 152°24'612.7
2017-Sep-27 22:00S 32°46' E 152°27'612.8
2017-Sep-27 21:30S 32°40' E 152°30'713.2
2017-Sep-27 21:00S 32°34' E 152°34'713.9
2017-Sep-27 20:30S 32°28' E 152°37'713.7
2017-Sep-27 20:01S 32°21' E 152°41'813.8
2017-Sep-27 19:26S 32°14' E 152°45'914.1
2017-Sep-27 18:48S 32°06' E 152°49'414.1
2017-Sep-27 18:30S 32°02' E 152°51'22914.9
2017-Sep-27 03:08S 28°20' E 153°53'214.1
2017-Sep-27 02:59S 28°18' E 153°53'714.4
2017-Sep-27 02:30S 28°11' E 153°53'714.6
2017-Sep-27 02:00S 28°04' E 153°54'2114.4
2017-Sep-27 00:32S 27°43' E 153°56'114.7
2017-Sep-27 00:29S 27°42' E 153°56'815.6
2017-Sep-27 00:00S 27°34' E 153°56'  
Track history (hours):
 
Tides and Currents Weather Stations Pressure Air Temp Water Temp Dewpoint Dewpoint Depression Visibility Wind Speed Wind Dir Waves Ship Positions

Shearwater

Last reported at 2017-Oct-04 07:32 UTC. Time now 2017-Oct-17 08:01 UTC.
Position S 27°01' E 153°54'.
Warning: this ship's position is 13 days out of date.

Length 210 m; draft 11.3 m.

Type: Cargo ship. MMSI: 370338000.

Date/timePositionNaut miles runAvg speedWind from/ knotsBaromVisibWave heightAir tempDewpointWater temp
2017-Oct-04 07:32S 27°01' E 153°54'2710.6
2017-Oct-04 05:01S 27°28' E 153°54'210.9
2017-Oct-04 04:50S 27°29' E 153°54'410.8
2017-Oct-04 04:29S 27°33' E 153°53'510.7
2017-Oct-04 04:00S 27°38' E 153°53'510.5
2017-Oct-04 03:30S 27°44' E 153°53'510.4
2017-Oct-04 03:00S 27°49' E 153°53'510.4
2017-Oct-04 02:30S 27°54' E 153°53'510.2
2017-Oct-04 02:00S 27°59' E 153°53'510.1
2017-Oct-04 01:30S 28°04' E 153°53'5 9.8
2017-Oct-04 01:00S 28°09' E 153°52'5 9.9
2017-Oct-04 00:30S 28°14' E 153°52'510.0
2017-Oct-04 00:00S 28°19' E 153°52'5 9.9
2017-Oct-03 23:30S 28°24' E 153°52'510.3
2017-Oct-03 23:00S 28°29' E 153°52'510.1
2017-Oct-03 22:30S 28°34' E 153°52'710.4
2017-Oct-03 21:50S 28°41' E 153°51'411.2
2017-Oct-03 21:29S 28°45' E 153°50'22510.4
2017-Oct-02 23:55S 32°22' E 152°41'410.7
2017-Oct-02 23:30S 32°26' E 152°38'510.5
2017-Oct-02 23:00S 32°31' E 152°36'511.0
2017-Oct-02 22:31S 32°36' E 152°33'611.4
2017-Oct-02 22:01S 32°41' E 152°31'611.5
2017-Oct-02 21:31S 32°46' E 152°28'611.0
2017-Oct-02 21:00S 32°51' E 152°25'611.4
2017-Oct-02 20:30S 32°56' E 152°22'611.4
2017-Oct-02 20:00S 33°01' E 152°18'611.5
2017-Oct-02 19:31S 33°06' E 152°15'611.5
2017-Oct-02 19:00S 33°12' E 152°13'5111.5
2017-Oct-02 14:37S 33°57' E 151°46'  
2017-Sep-28 01:05S 33°21' E 152°08'112.8
2017-Sep-28 01:00S 33°20' E 152°08'712.7
2017-Sep-28 00:28S 33°14' E 152°11'612.5
2017-Sep-28 00:00S 33°08' E 152°14'612.5
2017-Sep-27 23:30S 33°03' E 152°18'612.6
2017-Sep-27 23:00S 32°57' E 152°21'612.6
2017-Sep-27 22:30S 32°51' E 152°24'612.7
2017-Sep-27 22:00S 32°46' E 152°27'612.8
2017-Sep-27 21:30S 32°40' E 152°30'713.2
2017-Sep-27 21:00S 32°34' E 152°34'713.9
2017-Sep-27 20:30S 32°28' E 152°37'713.7
2017-Sep-27 20:01S 32°21' E 152°41'813.8
2017-Sep-27 19:26S 32°14' E 152°45'914.1
2017-Sep-27 18:48S 32°06' E 152°49'414.1
2017-Sep-27 18:30S 32°02' E 152°51'22914.9
2017-Sep-27 03:08S 28°20' E 153°53'214.1
2017-Sep-27 02:59S 28°18' E 153°53'714.4
2017-Sep-27 02:30S 28°11' E 153°53'714.6
2017-Sep-27 02:00S 28°04' E 153°54'2114.4
2017-Sep-27 00:32S 27°43' E 153°56'114.7
2017-Sep-27 00:29S 27°42' E 153°56'815.6
2017-Sep-27 00:00S 27°34' E 153°56'  

Dump ship's entire track history